AQQ9 IFIS: Internet Flight Information System
logo dgac
Miércoles 10 de Agosto del 2022
Buscar por aerodromo o helipuerto
Ingrese nombre de aeródromo, localidad o designador OACI:
METAR del 10-08-2022 a las 18:00 UTC
Para mayor información visite www.meteochile.cl
METAR SCHR 101800Z 27005KT 9999 BKN040 12/03 Q1005
Viento: dirección 270 grados, velocidad 5 nudos
Visibilidad: 10 km o más
Nubes: Nublado a 4000 pies sobre el nivel del aeródromo
Temperatura: 12 °C
Rocío: 3 °C
Humedad_relativa: 54%
Presión: 1005 hPa
METAR del 10-08-2022 a las 17:00 UTC
Para mayor información visite www.meteochile.cl
METAR SCHR 101700Z 33006KT 9999 SCT035 12/04 Q1005
Viento: dirección 330 grados, velocidad 6 nudos
Visibilidad: 10 km o más
Nubes: Nubosidad parcial a 3500 pies sobre el nivel del aeródromo
Temperatura: 12 °C
Rocío: 4 °C
Humedad_relativa: 58%
Presión: 1005 hPa
METAR del 10-08-2022 a las 16:00 UTC
Para mayor información visite www.meteochile.cl
METAR SCHR 101600Z 33004KT 9999 SCT035 12/02 Q1006
Viento: dirección 330 grados, velocidad 4 nudos
Visibilidad: 10 km o más
Nubes: Nubosidad parcial a 3500 pies sobre el nivel del aeródromo
Temperatura: 12 °C
Rocío: 2 °C
Humedad_relativa: 50%
Presión: 1006 hPa
METAR del 10-08-2022 a las 15:00 UTC
Para mayor información visite www.meteochile.cl
METAR SCHR 101500Z 09003KT 9999 SCT035 10/03 Q1006
Viento: dirección 090 grados, velocidad 3 nudos
Visibilidad: 10 km o más
Nubes: Nubosidad parcial a 3500 pies sobre el nivel del aeródromo
Temperatura: 10 °C
Rocío: 3 °C
Humedad_relativa: 62%
Presión: 1006 hPa
METAR del 10-08-2022 a las 14:00 UTC
Para mayor información visite www.meteochile.cl
METAR SCHR 101400Z 30002KT 9999 SCT035 05/02 Q1006
Viento: dirección 300 grados, velocidad 2 nudos
Visibilidad: 10 km o más
Nubes: Nubosidad parcial a 3500 pies sobre el nivel del aeródromo
Temperatura: 5 °C
Rocío: 2 °C
Humedad_relativa: 81%
Presión: 1006 hPa
METAR del 10-08-2022 a las 13:00 UTC
Para mayor información visite www.meteochile.cl
METAR SCHR 101300Z 00000KT 9999 SCT035 05/02 Q1006
Visibilidad: 10 km o más
Nubes: Nubosidad parcial a 3500 pies sobre el nivel del aeródromo
Temperatura: 5 °C
Rocío: 2 °C
Humedad_relativa: 81%
Presión: 1006 hPa
METAR del 09-08-2022 a las 21:00 UTC
Para mayor información visite www.meteochile.cl
METAR SCHR 092100Z 32005KT 9999 BKN045 08/04 Q1009
Viento: dirección 320 grados, velocidad 5 nudos
Visibilidad: 10 km o más
Nubes: Nublado a 4500 pies sobre el nivel del aeródromo
Temperatura: 8 °C
Rocío: 4 °C
Humedad_relativa: 76%
Presión: 1009 hPa
METAR del 09-08-2022 a las 20:00 UTC
Para mayor información visite www.meteochile.cl
METAR SCHR 092000Z 00000KT 9999 BKN045 09/03 Q1009
Visibilidad: 10 km o más
Nubes: Nublado a 4500 pies sobre el nivel del aeródromo
Temperatura: 9 °C
Rocío: 3 °C
Humedad_relativa: 66%
Presión: 1009 hPa
METAR del 09-08-2022 a las 19:00 UTC
Para mayor información visite www.meteochile.cl
METAR SCHR 091900Z 31005KT 9999 BKN045 11/05 Q1010
Viento: dirección 310 grados, velocidad 5 nudos
Visibilidad: 10 km o más
Nubes: Nublado a 4500 pies sobre el nivel del aeródromo
Temperatura: 11 °C
Rocío: 5 °C
Humedad_relativa: 66%
Presión: 1010 hPa